Share

Gillette, WY

Gillette-Campbell County (KGCC) Elev 4364 ft | 44.34 °N, 105.54 °W | Change Station

Current weather conditions updated 5 minutes ago

Mostly Cloudy
Mostly Cloudy
58 °F
Feels Like 58 °F
N
9
Wind Variable Wind from WSW
Gusts 21 mph
Sunrise 6:15 AM
Sunset 7:50 PM
Moon Waning Gibbous

Today is forecast to be Much Warmer than yesterday.

Pressure 29.90 in
Visibility 10.0 miles
Clouds Mostly Cloudy 9500 ft
Dew Point 25 °F
Humidity 28%
Rainfall 0.00 in
Snow Depth Not available.
UV 3 out of 16
Pollen 8.40 out of 12
Air Quality Not available.
Flu Activity Sporadic
METAR KGCC 172153Z AUTO 25008G18KT 10SM BKN095 14/M04 A2990 RMK AO2 SLP123 T01441039

More Conditions Fewer Conditions

Pressure 29.90 in
Visibility 10.0 miles
Clouds Mostly Cloudy 9500 ft
Dew Point 25 °F
Humidity 28%
Rainfall 0.00 in
Snow Depth Not available.
UV 3 out of 16
Pollen 8.40 out of 12
Air Quality Not available.
Flu Activity Sporadic
METAR KGCC 172153Z AUTO 25008G18KT 10SM BKN095 14/M04 A2990 RMK AO2 SLP123 T01441039

More Conditions Fewer Conditions

10-Day Forecast

Almanac

Astronomy

Apr. 17, 2014 Rise Set
Actual Time 6:15 AM MDT 7:50 PM MDT
Civil Twilight 5:44 AM MDT 8:20 PM MDT
Nautical Twilight 5:07 AM MDT 8:58 PM MDT
Astronomical Twilight 4:27 AM MDT 9:38 PM MDT
Moon 10:43 PM MDT 7:44 AM MDT
Length of Visible Light 14h 36m
Length of Day
13h 34m
Tomorrow will be 2m 56s longer.
Waning Gibbous, 92% of the Moon is Illuminated
Today
Waning Gibbous
Apr 22
Last Quarter
Apr 29
New
May 6
First Quarter
May 14
Full

Today's Extremes

State Highs State Lows

Community

  • Morning Light
    Morning Light
  • New Day
    New Day
  • Lake Michigan Sunrise
    Lake Michigan Sunrise
  • sunset from izmir, narlıdere
    sunset from izmir, narlıdere
  • oregon cherry
    oregon cherry

WunderPhotos

Upload Photos

1,702,143 photos uploaded!

Nearby

Snow Depth

Station Depth Elevation
Bald Mountain 89 in 9380 ft
Casper Mountain 53 in 7850 ft
Reno Hill 60 in 8500 ft
Windy Peak 30 in 7900 ft
Townsend Creek 28 in 8700 ft

Coastal Water Temperatures

Place Temperature
No Stations Reporting

Earthquake Activity

City Distance Mag. Time & Date
No recent earthquake activity has been reported nearby.
Minimum magnitude displayed is 2.5.

Nearby Weather Stations

Station Location Temp. Dew Point Humidity Wind Precip. Elev Updated Type
RAWS ECHETA WY, Gillette, WY 59 °F 24 °F 26% SSW  at  11 mph 0.00 in / hr 4396 ft 2:51 PM MDT MADIS
(North Gillette), Gillette, WY 61.6 °F 28 °F 28% South  at  0.0 mph 0.00 in / hr 4642 ft 3:58 PM MDT Rapid Fire

Show More Stations Show Fewer Stations

What do you think?

We're not finished. Please let us know what you like, what you don't like, and what you are still missing.